createdAt,value
2018-05-09T00:01:59.705Z,99012.87
2018-05-09T00:04:31.170Z,99012.45
2018-05-09T00:07:04.510Z,99017.39
2018-05-09T00:09:39.065Z,99013.70
2018-05-09T00:12:11.119Z,99012.95
2018-05-09T00:14:43.535Z,99017.68
2018-05-09T00:17:17.430Z,99015.29
2018-05-09T00:19:49.259Z,99021.23
2018-05-09T00:22:20.915Z,99012.64
2018-05-09T00:24:52.327Z,99020.37
2018-05-09T00:27:24.509Z,99023.76
2018-05-09T00:29:57.347Z,99015.42
2018-05-09T00:32:28.742Z,99008.09
2018-05-09T00:35:00.420Z,99009.47
2018-05-09T00:37:32.126Z,99011.37
2018-05-09T00:40:03.686Z,99010.48
2018-05-09T00:42:35.030Z,99005.70
2018-05-09T00:45:08.669Z,99024.41
2018-05-09T00:47:40.122Z,99007.28
2018-05-09T00:50:11.561Z,99006.46
2018-05-09T00:52:43.488Z,99002.75
2018-05-09T00:55:14.856Z,98997.67
2018-05-09T00:57:47.195Z,98995.36
2018-05-09T01:00:19.170Z,98992.39
2018-05-09T01:02:50.521Z,98992.94
2018-05-09T01:05:24.941Z,98995.92
2018-05-09T01:07:56.797Z,98992.64
2018-05-09T01:10:28.986Z,99001.58
2018-05-09T01:13:02.964Z,98998.77
2018-05-09T01:15:36.555Z,98997.46
2018-05-09T01:18:07.915Z,98998.52
2018-05-09T01:20:41.999Z,99002.09
2018-05-09T01:23:19.443Z,99001.77
2018-05-09T01:25:51.001Z,99000.73
2018-05-09T01:28:23.938Z,98999.64
2018-05-09T01:30:55.206Z,98993.55
2018-05-09T01:33:29.980Z,98998.02
2018-05-09T01:36:03.492Z,98998.74
2018-05-09T01:38:35.923Z,99005.66
2018-05-09T01:41:07.343Z,99004.94
2018-05-09T01:43:39.012Z,98998.23
2018-05-09T01:46:10.559Z,99002.20
2018-05-09T01:48:41.572Z,98994.67
2018-05-09T01:51:12.932Z,98993.41
2018-05-09T01:56:36.211Z,98986.41
2018-05-09T01:59:07.489Z,98985.48
2018-05-09T02:01:39.808Z,98986.45
2018-05-09T02:04:11.401Z,98988.37
2018-05-09T02:06:42.751Z,98991.58
2018-05-09T02:09:14.432Z,98988.56
2018-05-09T02:11:46.756Z,98980.88
2018-05-09T02:14:18.897Z,98976.28
2018-05-09T02:16:50.681Z,98976.53
2018-05-09T02:19:22.916Z,98983.48
2018-05-09T02:21:55.645Z,98985.77
2018-05-09T02:24:27.015Z,98979.06
2018-05-09T02:26:58.832Z,98984.64
2018-05-09T02:29:30.744Z,98988.80
2018-05-09T02:32:02.211Z,98995.24
2018-05-09T02:34:34.731Z,98991.55
2018-05-09T02:37:09.289Z,98996.88
2018-05-09T02:39:40.708Z,98991.88
2018-05-09T02:42:12.189Z,98986.03
2018-05-09T02:44:46.091Z,98991.66
2018-05-09T02:47:20.622Z,98991.25
2018-05-09T02:49:52.188Z,98976.98
2018-05-09T02:52:24.562Z,98987.53
2018-05-09T02:54:56.274Z,98988.08
2018-05-09T02:57:27.654Z,98984.12
2018-05-09T02:59:59.682Z,98982.99
2018-05-09T03:02:31.963Z,98985.20
2018-05-09T03:05:03.757Z,98994.33
2018-05-09T03:07:35.561Z,98990.55
2018-05-09T03:10:07.184Z,98982.52
2018-05-09T03:12:39.206Z,98997.16
2018-05-09T03:15:10.465Z,99003.78
2018-05-09T03:17:44.241Z,99005.66
2018-05-09T03:20:15.621Z,98999.72
2018-05-09T03:22:46.893Z,98999.38
2018-05-09T03:25:19.732Z,99004.31
2018-05-09T03:27:51.545Z,99002.08
2018-05-09T03:30:23.892Z,99001.80
2018-05-09T03:32:55.230Z,98996.01
2018-05-09T03:35:26.507Z,98999.97
2018-05-09T03:37:58.318Z,98998.70
2018-05-09T03:40:29.714Z,99002.12
2018-05-09T03:43:01.061Z,99005.59
2018-05-09T03:45:33.715Z,99010.74
2018-05-09T03:48:06.530Z,99012.16
2018-05-09T03:50:38.930Z,99011.29
2018-05-09T03:53:11.170Z,99017.27
2018-05-09T03:55:42.843Z,99010.52
2018-05-09T03:58:14.281Z,99007.32
2018-05-09T04:00:45.513Z,99004.48
2018-05-09T04:04:30.212Z,99006.98
2018-05-09T04:09:46.634Z,99011.17
2018-05-09T04:12:17.953Z,99008.84
2018-05-09T04:14:49.471Z,99003.20
2018-05-09T04:17:20.942Z,99002.63
2018-05-09T04:19:53.342Z,98999.30
2018-05-09T04:22:27.101Z,99004.16
2018-05-09T04:24:58.376Z,99009.84
2018-05-09T04:27:29.724Z,99010.63
2018-05-09T04:30:01.039Z,99009.38
2018-05-09T04:32:34.932Z,99013.94
2018-05-09T04:35:08.147Z,99019.67
2018-05-09T04:37:39.449Z,99019.41
2018-05-09T04:40:11.594Z,99018.72
2018-05-09T04:42:42.947Z,99023.62
2018-05-09T04:45:17.593Z,99029.69
2018-05-09T04:47:48.983Z,99029.44
2018-05-09T04:50:20.299Z,99026.81
2018-05-09T04:52:51.601Z,99032.27
2018-05-09T04:55:23.081Z,99031.18
2018-05-09T04:57:55.433Z,99029.81
2018-05-09T05:00:26.872Z,99035.04
2018-05-09T05:02:58.233Z,99035.66
2018-05-09T05:05:29.876Z,99037.99
2018-05-09T05:08:04.381Z,99031.41
2018-05-09T05:10:39.629Z,99033.37
2018-05-09T05:13:21.540Z,99026.98
2018-05-09T05:15:52.993Z,99028.13
2018-05-09T05:18:24.654Z,99028.06
2018-05-09T05:20:55.978Z,99028.28
2018-05-09T05:23:28.090Z,99028.23
2018-05-09T05:25:59.617Z,99027.58
2018-05-09T05:28:31.221Z,99030.05
2018-05-09T05:31:02.541Z,99028.47
2018-05-09T05:33:33.898Z,99026.34
2018-05-09T05:36:05.338Z,99027.20
2018-05-09T05:38:36.610Z,99034.15
2018-05-09T05:41:07.898Z,99037.75
2018-05-09T05:43:39.234Z,99042.19
2018-05-09T05:46:11.349Z,99040.06
2018-05-09T05:48:42.953Z,99049.98
2018-05-09T05:51:15.168Z,99049.54
2018-05-09T05:53:46.570Z,99051.20
2018-05-09T05:56:18.780Z,99051.55
2018-05-09T05:58:50.205Z,99051.20
2018-05-09T06:01:22.288Z,99044.78
2018-05-09T06:03:53.686Z,99046.21
2018-05-09T06:06:26.052Z,99050.06
2018-05-09T06:08:57.661Z,99055.59
2018-05-09T06:11:28.175Z,99054.51
2018-05-09T06:13:59.953Z,99057.27
2018-05-09T06:16:31.406Z,99060.88
2018-05-09T06:19:02.832Z,99063.41
2018-05-09T06:21:34.056Z,99066.16
2018-05-09T06:24:06.393Z,99063.77
2018-05-09T06:26:37.379Z,99065.13
2018-05-09T06:29:11.269Z,99072.48
2018-05-09T06:31:43.949Z,99072.02
2018-05-09T06:34:17.478Z,99069.09
2018-05-09T06:36:49.287Z,99066.77
2018-05-09T06:39:21.676Z,99060.80
2018-05-09T06:41:53.005Z,99055.86
2018-05-09T06:44:24.364Z,99059.80
2018-05-09T06:46:55.844Z,99059.75
2018-05-09T06:49:28.105Z,99060.30
2018-05-09T06:51:59.455Z,99058.09
2018-05-09T06:54:30.763Z,99052.74
2018-05-09T06:57:02.123Z,99051.34
2018-05-09T06:59:33.651Z,99052.56
2018-05-09T07:02:05.014Z,99046.48
2018-05-09T07:04:36.744Z,99047.45
2018-05-09T07:07:08.843Z,99044.73
2018-05-09T07:09:41.166Z,99045.15
2018-05-09T07:12:13.107Z,99048.45
2018-05-09T07:14:44.553Z,99045.25
2018-05-09T07:17:15.847Z,99041.58
2018-05-09T07:19:47.621Z,99034.69
2018-05-09T07:22:19.878Z,99037.50
2018-05-09T07:24:51.339Z,99041.90
2018-05-09T07:27:23.725Z,99036.30
2018-05-09T07:29:55.928Z,99037.37
2018-05-09T07:32:27.337Z,99040.87
2018-05-09T07:34:58.693Z,99042.41
2018-05-09T07:37:30.112Z,99036.59
2018-05-09T07:40:10.330Z,99052.24
2018-05-09T07:42:41.697Z,99050.05
2018-05-09T07:45:15.320Z,99054.94
2018-05-09T07:47:47.956Z,99060.86
2018-05-09T07:50:19.724Z,99066.98
2018-05-09T07:52:51.808Z,99069.78
2018-05-09T07:55:23.067Z,99063.10
2018-05-09T07:57:55.581Z,99061.20
2018-05-09T08:00:27.841Z,99065.81
2018-05-09T08:02:59.237Z,99062.95
2018-05-09T08:05:30.628Z,99061.59
2018-05-09T08:08:02.092Z,99070.30
2018-05-09T08:10:33.104Z,99067.92
2018-05-09T08:13:05.393Z,99072.61
2018-05-09T08:15:37.019Z,99065.88
2018-05-09T08:18:08.432Z,99063.23
2018-05-09T08:20:39.964Z,99061.20
2018-05-09T08:23:10.474Z,99058.55
2018-05-09T08:25:41.914Z,99057.95
2018-05-09T08:28:13.785Z,99063.77
2018-05-09T08:30:45.485Z,99065.47
2018-05-09T08:33:17.834Z,99058.08
2018-05-09T08:35:50.117Z,99061.03
2018-05-09T08:38:21.526Z,99060.03
2018-05-09T08:40:53.800Z,99070.08
2018-05-09T08:43:26.111Z,99066.13
2018-05-09T08:45:57.908Z,99061.47
2018-05-09T08:48:28.395Z,99060.98
2018-05-09T08:50:59.932Z,99055.13
2018-05-09T08:53:32.290Z,99053.02
2018-05-09T08:56:03.834Z,99053.81
2018-05-09T08:58:35.234Z,99052.12
2018-05-09T09:01:08.004Z,99048.62
2018-05-09T09:03:39.710Z,99051.20
2018-05-09T09:06:11.187Z,99039.95
2018-05-09T09:08:42.630Z,99044.52
2018-05-09T09:11:14.735Z,99041.50
2018-05-09T09:13:46.171Z,99038.88
2018-05-09T09:16:18.088Z,99038.05
2018-05-09T09:18:49.579Z,99043.26
2018-05-09T09:21:20.620Z,99035.48
2018-05-09T09:23:52.850Z,99039.45
2018-05-09T09:26:26.294Z,99036.61
2018-05-09T09:29:00.219Z,99036.36
2018-05-09T09:31:32.735Z,99031.41
2018-05-09T09:34:04.932Z,99036.81
2018-05-09T09:36:36.299Z,99027.79
2018-05-09T09:39:08.672Z,99024.20
2018-05-09T09:41:40.071Z,99024.06
2018-05-09T09:44:12.768Z,99024.90
2018-05-09T09:46:45.151Z,99019.66
2018-05-09T09:49:16.648Z,99017.30
2018-05-09T09:51:47.957Z,99013.11
2018-05-09T09:54:19.348Z,99012.23
2018-05-09T09:56:49.851Z,99012.56
2018-05-09T09:59:21.454Z,99009.66
2018-05-09T10:01:52.790Z,99007.68
2018-05-09T10:04:29.093Z,99015.70
2018-05-09T10:07:06.269Z,99004.45
2018-05-09T10:09:42.737Z,99008.77
2018-05-09T10:12:16.099Z,99011.33
2018-05-09T10:14:47.707Z,99006.20
2018-05-09T10:17:19.215Z,99009.96
2018-05-09T10:19:56.920Z,99010.05
2018-05-09T10:22:28.881Z,99000.25
2018-05-09T10:25:00.236Z,99005.11
2018-05-09T10:27:32.454Z,99002.42
2018-05-09T10:30:08.088Z,98998.49
2018-05-09T10:32:39.443Z,98995.74
2018-05-09T10:35:11.296Z,98989.89
2018-05-09T10:37:43.605Z,98984.78
2018-05-09T10:40:15.859Z,98982.43
2018-05-09T10:42:47.217Z,98989.63
2018-05-09T10:45:19.356Z,98972.75
2018-05-09T10:47:50.808Z,98979.72
2018-05-09T10:50:22.866Z,98984.84
2018-05-09T10:52:54.374Z,98980.61
2018-05-09T10:55:25.762Z,98976.38
2018-05-09T10:57:57.205Z,98973.13
2018-05-09T11:00:28.910Z,98976.47
2018-05-09T11:03:00.247Z,98978.00
2018-05-09T11:05:33.178Z,98972.45
2018-05-09T11:10:42.855Z,98969.27
2018-05-09T11:13:14.723Z,98964.70
2018-05-09T11:15:46.196Z,98964.59
2018-05-09T11:18:17.586Z,98953.61
2018-05-09T11:20:48.907Z,98956.07
2018-05-09T11:23:21.566Z,98947.15
2018-05-09T11:25:52.925Z,98955.75
2018-05-09T11:28:24.863Z,98945.37
2018-05-09T11:30:56.895Z,98941.15
2018-05-09T11:33:28.285Z,98945.40
2018-05-09T11:36:00.510Z,98934.86
2018-05-09T11:38:33.760Z,98926.33
2018-05-09T11:41:06.418Z,98928.75
2018-05-09T11:43:38.843Z,98927.46
2018-05-09T11:46:10.949Z,98928.98
2018-05-09T11:48:43.232Z,98928.05
2018-05-09T11:51:14.987Z,98926.27
2018-05-09T11:53:46.432Z,98929.23
2018-05-09T11:56:18.199Z,98924.20
2018-05-09T11:58:54.367Z,98928.59
2018-05-09T12:01:24.912Z,98921.41
2018-05-09T12:03:55.511Z,98924.72
2018-05-09T12:06:28.786Z,98922.16
2018-05-09T12:09:00.125Z,98922.75
2018-05-09T12:11:34.720Z,98921.52
2018-05-09T12:14:05.201Z,98913.33
2018-05-09T12:16:37.670Z,98914.61
2018-05-09T12:19:09.394Z,98903.30
2018-05-09T12:21:41.839Z,98913.05
2018-05-09T12:24:13.263Z,98904.02
2018-05-09T12:26:46.441Z,98908.92
2018-05-09T12:29:20.120Z,98896.30
2018-05-09T12:31:52.451Z,98896.63
2018-05-09T12:34:30.427Z,98894.05
2018-05-09T12:37:02.735Z,98892.19
2018-05-09T12:39:33.522Z,98885.02
2018-05-09T12:42:04.928Z,98892.67
2018-05-09T12:44:36.328Z,98888.67
2018-05-09T12:47:09.055Z,98881.27
2018-05-09T12:49:40.446Z,98882.70
2018-05-09T12:52:12.684Z,98880.20
2018-05-09T12:54:45.023Z,98878.92
2018-05-09T12:57:16.449Z,98877.53
2018-05-09T12:59:48.220Z,98880.39
2018-05-09T13:02:21.455Z,98901.09
2018-05-09T13:05:00.595Z,98877.78
2018-05-09T13:07:32.279Z,98876.41
2018-05-09T13:10:03.812Z,98866.88
2018-05-09T13:12:36.247Z,98861.97
2018-05-09T13:15:07.951Z,98855.48
2018-05-09T13:17:39.534Z,98860.52
2018-05-09T13:20:10.893Z,98860.95
2018-05-09T13:22:43.177Z,98859.72
2018-05-09T13:25:14.638Z,98852.72
2018-05-09T13:27:46.386Z,98845.20
2018-05-09T13:30:17.852Z,98846.77
2018-05-09T13:32:49.170Z,98841.87
2018-05-09T13:35:20.850Z,98834.80
2018-05-09T13:37:52.616Z,98840.26
2018-05-09T13:40:23.951Z,98834.55
2018-05-09T13:42:56.293Z,98835.81
2018-05-09T13:45:27.719Z,98831.28
2018-05-09T13:47:59.437Z,98825.39
2018-05-09T13:50:35.211Z,98828.79
2018-05-09T13:53:07.534Z,98824.65
2018-05-09T13:55:39.418Z,98821.04
2018-05-09T13:58:11.129Z,98824.05
2018-05-09T14:00:42.604Z,98817.44
2018-05-09T14:03:14.186Z,98820.80
2018-05-09T14:05:45.830Z,98823.55
2018-05-09T14:08:20.062Z,98820.33
2018-05-09T14:10:52.461Z,98829.39
2018-05-09T14:13:24.693Z,98831.58
2018-05-09T14:15:56.527Z,98837.50
2018-05-09T14:18:32.940Z,98830.41
2018-05-09T14:21:04.471Z,98822.04
2018-05-09T14:23:37.055Z,98822.03
2018-05-09T14:26:08.498Z,98822.39
2018-05-09T14:28:38.915Z,98813.77
2018-05-09T14:31:11.238Z,98809.61
2018-05-09T14:33:41.844Z,98807.97
2018-05-09T14:36:12.973Z,98811.52
2018-05-09T14:38:43.441Z,98803.95
2018-05-09T14:41:16.900Z,98799.42
2018-05-09T14:43:50.449Z,98794.61
2018-05-09T14:46:21.208Z,98789.56
2018-05-09T14:48:54.552Z,98784.05
2018-05-09T14:51:25.115Z,98787.56
2018-05-09T14:53:57.411Z,98789.61
2018-05-09T14:56:28.996Z,98785.42
2018-05-09T14:58:59.915Z,98784.64
2018-05-09T15:01:31.646Z,98777.19
2018-05-09T15:04:02.367Z,98782.59
2018-05-09T15:06:34.612Z,98777.04
2018-05-09T15:09:05.697Z,98775.92
2018-05-09T15:11:36.493Z,98772.09
2018-05-09T15:14:08.996Z,98773.91
2018-05-09T15:16:39.483Z,98770.64
2018-05-09T15:19:11.487Z,98773.55
2018-05-09T15:21:43.842Z,98776.94
2018-05-09T15:24:15.483Z,98774.18
2018-05-09T15:26:48.126Z,98772.27
2018-05-09T15:29:19.801Z,98764.90
2018-05-09T15:31:53.395Z,98765.34
2018-05-09T15:34:23.922Z,98763.34
2018-05-09T15:36:55.332Z,98767.00
2018-05-09T15:39:26.743Z,98765.01
2018-05-09T15:41:59.122Z,98765.77
2018-05-09T15:44:30.923Z,98764.44
2018-05-09T15:47:02.362Z,98758.18
2018-05-09T15:49:33.819Z,98756.61
2018-05-09T15:52:07.091Z,98754.95
2018-05-09T15:54:39.375Z,98756.50
2018-05-09T15:57:11.045Z,98753.94
2018-05-09T15:59:42.576Z,98747.75
2018-05-09T16:02:13.834Z,98751.47
2018-05-09T16:04:45.343Z,98748.50
2018-05-09T16:07:16.736Z,98745.91
2018-05-09T16:09:48.934Z,98742.19
2018-05-09T16:12:27.158Z,98744.80
2018-05-09T16:14:58.663Z,98740.66
2018-05-09T16:17:30.536Z,98738.72
2018-05-09T16:20:01.850Z,98736.55
2018-05-09T16:22:33.428Z,98735.30
2018-05-09T16:25:04.949Z,98728.73
2018-05-09T16:27:36.480Z,98732.38
2018-05-09T16:30:08.086Z,98727.88
2018-05-09T16:32:40.398Z,98729.51
2018-05-09T16:35:11.894Z,98726.91
2018-05-09T16:37:44.368Z,98731.55
2018-05-09T16:40:15.850Z,98730.70
2018-05-09T16:42:47.228Z,98723.73
2018-05-09T16:45:18.652Z,98724.69
2018-05-09T16:50:57.050Z,98726.66
2018-05-09T16:53:28.696Z,98728.15
2018-05-09T16:56:01.181Z,98722.88
2018-05-09T16:58:33.172Z,98728.44
2018-05-09T17:01:04.641Z,98727.11
2018-05-09T17:03:36.070Z,98726.58
2018-05-09T17:06:10.183Z,98722.05
2018-05-09T17:08:42.511Z,98728.20
2018-05-09T17:11:15.236Z,98718.25
2018-05-09T17:13:46.736Z,98719.41
2018-05-09T17:16:19.011Z,98717.92
2018-05-09T17:18:51.026Z,98719.45
2018-05-09T17:21:35.077Z,98712.03
2018-05-09T17:24:06.585Z,98710.52
2018-05-09T17:26:39.887Z,98709.11
2018-05-09T17:29:11.032Z,98707.78
2018-05-09T17:31:43.819Z,98704.46
2018-05-09T17:34:16.237Z,98708.08
2018-05-09T17:36:48.699Z,98704.09
2018-05-09T17:39:25.129Z,98702.58
2018-05-09T17:41:58.488Z,98702.09
2018-05-09T17:44:31.084Z,98699.83
2018-05-09T17:47:02.413Z,98700.48
2018-05-09T17:49:34.835Z,98698.52
2018-05-09T17:52:08.808Z,98702.95
2018-05-09T17:54:40.126Z,98698.75
2018-05-09T17:57:12.342Z,98706.95
2018-05-09T17:59:43.655Z,98708.04
2018-05-09T18:02:15.091Z,98705.41
2018-05-09T18:04:48.318Z,98707.95
2018-05-09T18:07:19.716Z,98710.02
2018-05-09T18:12:55.499Z,98718.66
2018-05-09T18:15:26.828Z,98720.46
2018-05-09T18:17:58.337Z,98711.40
2018-05-09T18:20:31.281Z,98722.42
2018-05-09T18:23:02.422Z,98722.05
2018-05-09T18:25:34.000Z,98722.33
2018-05-09T18:28:05.482Z,98715.72
2018-05-09T18:30:36.598Z,98721.92
2018-05-09T18:33:07.993Z,98720.17
2018-05-09T18:35:39.527Z,98719.95
2018-05-09T18:38:10.960Z,98714.30
2018-05-09T18:40:43.684Z,98712.31
2018-05-09T18:43:14.845Z,98713.53
2018-05-09T18:45:46.272Z,98719.03
2018-05-09T18:48:18.022Z,98721.31
2018-05-09T18:50:50.084Z,98728.77
2018-05-09T18:53:22.426Z,98723.27
2018-05-09T18:55:54.986Z,98721.08
2018-05-09T18:58:26.351Z,98718.16
2018-05-09T19:00:58.795Z,98717.22
2018-05-09T19:03:30.575Z,98723.16
2018-05-09T19:06:02.130Z,98713.19
2018-05-09T19:08:34.755Z,98717.57
2018-05-09T19:11:07.099Z,98716.66
2018-05-09T19:13:38.166Z,98717.89
2018-05-09T19:16:08.779Z,98714.53
2018-05-09T19:18:39.922Z,98716.51
2018-05-09T19:21:12.519Z,98721.03
2018-05-09T19:23:44.578Z,98728.37
2018-05-09T19:26:17.750Z,98727.78
2018-05-09T19:28:50.613Z,98727.09
2018-05-09T19:31:22.002Z,98732.28
2018-05-09T19:33:52.273Z,98730.30
2018-05-09T19:36:25.148Z,98738.10
2018-05-09T19:38:57.684Z,98739.41
2018-05-09T19:41:29.960Z,98735.59
2018-05-09T19:44:02.815Z,98738.88
2018-05-09T19:46:33.263Z,98739.84
2018-05-09T19:49:03.782Z,98740.78
2018-05-09T19:51:34.678Z,98745.58
2018-05-09T19:54:04.945Z,98741.53
2018-05-09T19:56:36.262Z,98740.29
2018-05-09T19:59:06.781Z,98743.06
2018-05-09T20:01:37.126Z,98742.66
2018-05-09T20:04:07.527Z,98741.02
2018-05-09T20:06:40.019Z,98743.36
2018-05-09T20:09:10.577Z,98739.98
2018-05-09T20:11:41.064Z,98744.67
2018-05-09T20:14:12.877Z,98742.33
2018-05-09T20:16:43.358Z,98745.08
2018-05-09T20:19:13.570Z,98743.66
2018-05-09T20:21:44.642Z,98747.95
2018-05-09T20:24:16.037Z,98748.41
2018-05-09T20:26:47.740Z,98758.92
2018-05-09T20:29:19.846Z,98756.42
2018-05-09T20:32:01.854Z,98758.98
2018-05-09T20:34:33.906Z,98759.31
2018-05-09T20:37:05.913Z,98755.38
2018-05-09T20:39:38.678Z,98757.20
2018-05-09T20:42:10.284Z,98757.14
2018-05-09T20:44:41.085Z,98757.14
2018-05-09T20:47:11.960Z,98756.22
2018-05-09T20:49:44.323Z,98764.42
2018-05-09T20:52:15.561Z,98768.46
2018-05-09T20:54:51.775Z,98772.34
2018-05-09T20:57:24.058Z,98776.56
2018-05-09T20:59:54.686Z,98771.47
2018-05-09T21:02:24.974Z,98780.27
2018-05-09T21:04:55.199Z,98770.09
2018-05-09T21:07:26.998Z,98776.87
2018-05-09T21:09:57.254Z,98775.35
2018-05-09T21:12:27.766Z,98781.18
2018-05-09T21:14:59.009Z,98788.13
2018-05-09T21:17:29.470Z,98791.44
2018-05-09T21:20:01.523Z,98787.23
2018-05-09T21:22:32.058Z,98795.65
2018-05-09T21:25:04.172Z,98806.83
2018-05-09T21:27:34.576Z,98803.58
2018-05-09T21:30:06.027Z,98800.84
2018-05-09T21:32:36.365Z,98799.38
2018-05-09T21:35:11.483Z,98793.86
2018-05-09T21:37:43.389Z,98797.57
2018-05-09T21:40:13.813Z,98799.95
2018-05-09T21:42:45.290Z,98794.92
2018-05-09T21:45:16.675Z,98797.90
2018-05-09T21:47:47.110Z,98805.00
2018-05-09T21:50:19.767Z,98802.59
2018-05-09T21:52:51.676Z,98804.22
2018-05-09T21:55:23.705Z,98807.11
2018-05-09T21:57:54.189Z,98794.51
2018-05-09T22:00:25.281Z,98801.66
2018-05-09T22:02:56.376Z,98804.64
2018-05-09T22:05:28.381Z,98810.08
2018-05-09T22:07:58.763Z,98803.83
2018-05-09T22:10:29.334Z,98807.66
2018-05-09T22:13:00.664Z,98801.14
2018-05-09T22:15:33.078Z,98800.34
2018-05-09T22:18:03.665Z,98795.80
2018-05-09T22:20:34.213Z,98804.97
2018-05-09T22:23:05.962Z,98802.77
2018-05-09T22:25:38.450Z,98802.29
2018-05-09T22:28:08.654Z,98802.70
2018-05-09T22:30:40.129Z,98800.11
2018-05-09T22:33:11.457Z,98799.69
2018-05-09T22:35:42.739Z,98797.44
2018-05-09T22:38:15.051Z,98792.83
2018-05-09T22:40:45.290Z,98790.88
2018-05-09T22:43:17.487Z,98787.24
2018-05-09T22:45:49.725Z,98778.66
2018-05-09T22:48:20.323Z,98778.28
2018-05-09T22:50:52.346Z,98777.23
2018-05-09T22:53:23.474Z,98777.87
2018-05-09T22:55:56.103Z,98766.30
2018-05-09T22:58:26.309Z,98757.41
2018-05-09T23:00:59.118Z,98746.89
2018-05-09T23:03:31.590Z,98746.72
2018-05-09T23:06:03.089Z,98745.64
2018-05-09T23:08:34.505Z,98748.84
2018-05-09T23:11:05.871Z,98743.15
2018-05-09T23:13:36.641Z,98752.22
2018-05-09T23:16:10.446Z,98742.67
2018-05-09T23:18:42.773Z,98739.55
2018-05-09T23:21:14.793Z,98743.91
2018-05-09T23:23:45.784Z,98739.14
2018-05-09T23:26:18.689Z,98739.33
2018-05-09T23:28:49.530Z,98742.93
2018-05-09T23:31:22.703Z,98747.72
2018-05-09T23:33:54.183Z,98750.11
2018-05-09T23:36:25.690Z,98750.59
2018-05-09T23:38:58.381Z,98745.80
2018-05-09T23:41:29.724Z,98743.44
2018-05-09T23:44:01.750Z,98733.09
2018-05-09T23:46:33.282Z,98742.62
2018-05-09T23:49:05.573Z,98723.03
2018-05-09T23:51:36.317Z,98730.12
2018-05-09T23:54:07.737Z,98726.30
2018-05-09T23:56:38.320Z,98724.05
2018-05-09T23:59:10.910Z,98722.27
